Creve Coeur, Illinois
Current Conditions -  °F | °C
As of 9:54 PM on Saturday 20 Dec 2014 (Local Time) from KPIA Reporting Station
Overcast Overcast  
Wind Chill: 30°   Ceiling: 3200
Heat Index: 36°   Visibility: 8mi
Dew Point: 28°   Wind: 8mph
Humidity: 73%   Direction: 170°S
Pressure: 30.24"   Gusts: NA
Location:  40.65°N, 89.6°W
Report Text: KPIA 210354Z 17007KT 8SM OVC032 02/M02 A3024 RMK AO2 SLP246 T00221022
Loading
Personal Weather Stations






























Interactive Weather Map New forecast layout! Learn more

10-Day Weather Forecast

Advertisements
Track Severe Weather on mobile